Time;durP1;ratioP1;P1;durP2;ratioP2;P2;SDS_P1;SDS_P2;PMS_P1;PMS_P2;Temp;Humidity;BMP_temperature;BMP_pressure;BME280_temperature;BME280_humidity;BME280_pressure;Samples;Min_cycle;Max_cycle;Signal;HPM_P1;HPM_P2
2022/04/25 00:00:45;;;;;;;;;;;24.30;42.20;;;;;;1547585;74;1136;-56
2022/04/25 00:02:49;;;;;;;;;;;24.20;42.10;;;;;;1545957;75;670;-54
2022/04/25 00:04:51;;;;;;;;;;;24.30;42.30;;;;;;1547147;75;1542;-53
2022/04/25 00:06:53;;;;;;;;;;;24.30;42.30;;;;;;1561074;75;683;-54
2022/04/25 00:08:55;;;;;;;;;;;24.30;42.30;;;;;;1548112;75;1136;-56
2022/04/25 00:10:57;;;;;;;;;;;24.30;42.30;;;;;;1551387;75;703;-54
2022/04/25 00:12:58;;;;;;;;;;;24.30;42.30;;;;;;1554702;75;656;-56
2022/04/25 00:15:00;;;;;;;;;;;24.30;42.30;;;;;;1553812;75;718;-56
2022/04/25 00:17:02;;;;;;;;;;;24.30;42.40;;;;;;1549161;75;650;-55
2022/04/25 00:19:04;;;;;;;;;;;24.30;42.40;;;;;;1549362;74;1942;-55
2022/04/25 00:21:06;;;;;;;;;;;24.30;42.40;;;;;;1548133;75;715;-53
2022/04/25 00:23:08;;;;;;;;;;;24.30;42.40;;;;;;1556941;75;624;-54
2022/04/25 00:25:10;;;;;;;;;;;24.20;42.30;;;;;;1545175;75;706;-56
2022/04/25 00:27:12;;;;;;;;;;;24.20;42.30;;;;;;1545640;75;709;-55
2022/04/25 00:29:15;;;;;;;;;;;24.20;42.30;;;;;;1562565;74;1163;-53
2022/04/25 00:31:17;;;;;;;;;;;24.30;42.50;;;;;;1548528;75;730;-54
2022/04/25 00:33:19;;;;;;;;;;;24.30;42.40;;;;;;1548951;76;671;-56
2022/04/25 00:35:21;;;;;;;;;;;24.30;42.40;;;;;;1553517;76;653;-55
2022/04/25 00:37:23;;;;;;;;;;;24.20;42.40;;;;;;1553436;75;774;-56
2022/04/25 00:39:24;;;;;;;;;;;24.20;42.30;;;;;;1563688;74;1950;-56
2022/04/25 00:41:26;;;;;;;;;;;24.20;42.40;;;;;;1546542;75;701;-57
2022/04/25 00:43:28;;;;;;;;;;;24.20;42.30;;;;;;1546304;76;647;-56
2022/04/25 00:45:33;;;;;;;;;;;24.30;42.40;;;;;;1544849;75;656;-55
2022/04/25 00:47:35;;;;;;;;;;;24.20;42.30;;;;;;1565145;75;744;-54
2022/04/25 00:49:37;;;;;;;;;;;24.20;42.40;;;;;;1568919;75;1054;-55
2022/04/25 00:51:39;;;;;;;;;;;24.10;42.40;;;;;;1546049;75;669;-56
2022/04/25 00:53:41;;;;;;;;;;;24.20;42.40;;;;;;1559094;74;755;-57
2022/04/25 00:55:43;;;;;;;;;;;24.20;42.40;;;;;;1540488;75;666;-55
2022/04/25 00:57:45;;;;;;;;;;;24.20;42.50;;;;;;1549385;75;678;-53
2022/04/25 00:59:46;;;;;;;;;;;24.20;42.50;;;;;;1550166;75;1959;-56
2022/04/25 01:01:48;;;;;;;;;;;24.20;42.50;;;;;;1554139;75;755;-55
2022/04/25 01:03:50;;;;;;;;;;;24.20;42.50;;;;;;1557028;75;717;-55
2022/04/25 01:05:52;;;;;;;;;;;24.20;42.50;;;;;;1548218;76;691;-56
2022/04/25 01:07:54;;;;;;;;;;;24.20;42.50;;;;;;1548541;75;664;-56
2022/04/25 01:09:56;;;;;;;;;;;24.20;42.60;;;;;;1546813;75;1124;-54
2022/04/25 01:11:58;;;;;;;;;;;24.10;42.60;;;;;;1560479;75;673;-56
2022/04/25 01:14:16;;;;;;;;;;;24.10;42.60;;;;;;1543783;75;662;-57
2022/04/25 01:16:18;;;;;;;;;;;24.20;42.60;;;;;;1549895;75;637;-54
2022/04/25 01:18:20;;;;;;;;;;;24.20;42.60;;;;;;1532398;75;689;-54
2022/04/25 01:20:22;;;;;;;;;;;24.10;42.70;;;;;;1546827;75;1947;-53
2022/04/25 01:22:34;;;;;;;;;;;24.20;42.70;;;;;;1548189;75;680;-55
2022/04/25 01:29:15;;;;;;;;;;;24.00;42.50;;;;;;1544678;76;1629;-57
2022/04/25 01:31:17;;;;;;;;;;;24.00;42.60;;;;;;1536877;75;673;-54
2022/04/25 01:33:19;;;;;;;;;;;24.00;42.60;;;;;;1553601;75;581;-52
2022/04/25 01:35:21;;;;;;;;;;;24.00;42.60;;;;;;1555567;72;225887;-66
2022/04/25 01:37:23;;;;;;;;;;;24.10;42.80;;;;;;1558439;75;652;-68
2022/04/25 01:39:25;;;;;;;;;;;24.00;42.70;;;;;;1547083;74;1933;-65
2022/04/25 01:41:27;;;;;;;;;;;24.10;42.90;;;;;;1564363;75;687;-66
2022/04/25 01:43:28;;;;;;;;;;;24.10;42.80;;;;;;1570077;75;650;-66
2022/04/25 01:45:30;;;;;;;;;;;24.10;42.80;;;;;;1559490;74;1183;-66
2022/04/25 01:47:32;;;;;;;;;;;24.10;42.90;;;;;;1539909;75;678;-67
2022/04/25 01:49:34;;;;;;;;;;;24.10;42.90;;;;;;1538666;75;788;-65
2022/04/25 01:51:36;;;;;;;;;;;24.10;42.90;;;;;;1526480;75;701;-65
2022/04/25 01:53:38;;;;;;;;;;;24.10;42.90;;;;;;1510472;77;1169;-66
2022/04/25 01:55:40;;;;;;;;;;;24.20;42.90;;;;;;1537453;75;1122;-66
2022/04/25 01:57:43;;;;;;;;;;;24.10;43.00;;;;;;1533115;75;793;-68
2022/04/25 01:59:45;;;;;;;;;;;24.20;42.90;;;;;;1538588;75;1927;-65
2022/04/25 02:01:47;;;;;;;;;;;24.10;43.00;;;;;;1534301;75;776;-66
2022/04/25 02:03:48;;;;;;;;;;;24.00;42.80;;;;;;1534873;75;750;-66
2022/04/25 02:05:50;;;;;;;;;;;24.00;42.80;;;;;;1536785;75;1105;-66
2022/04/25 02:07:52;;;;;;;;;;;24.00;42.90;;;;;;1543834;75;617;-66
2022/04/25 02:09:54;;;;;;;;;;;24.10;43.10;;;;;;1543083;75;767;-66
2022/04/25 02:11:56;;;;;;;;;;;24.10;43.10;;;;;;1542712;75;652;-67
2022/04/25 02:13:58;;;;;;;;;;;24.10;43.10;;;;;;1540163;75;723;-65
2022/04/25 02:16:00;;;;;;;;;;;24.10;43.10;;;;;;1543789;75;1113;-66
2022/04/25 02:18:01;;;;;;;;;;;24.10;43.10;;;;;;1545231;75;691;-67
2022/04/25 02:20:03;;;;;;;;;;;24.00;42.90;;;;;;1542576;75;1951;-65
2022/04/25 02:22:06;;;;;;;;;;;24.10;43.00;;;;;;1543351;75;665;-66
2022/04/25 02:24:08;;;;;;;;;;;24.00;42.90;;;;;;1543223;75;775;-66
2022/04/25 02:26:10;;;;;;;;;;;24.00;42.80;;;;;;1540897;75;1091;-68
2022/04/25 02:28:12;;;;;;;;;;;24.10;43.10;;;;;;1529496;75;608;-65
2022/04/25 02:30:14;;;;;;;;;;;24.20;43.10;;;;;;1532915;75;565;-66
2022/04/25 02:32:17;;;;;;;;;;;24.10;43.00;;;;;;1535964;75;773;-68
2022/04/25 02:34:19;;;;;;;;;;;24.20;43.00;;;;;;1538992;75;599;-65
2022/04/25 02:36:21;;;;;;;;;;;24.10;43.00;;;;;;1535363;75;784;-65
2022/04/25 02:38:23;;;;;;;;;;;24.10;43.00;;;;;;1540973;75;769;-67
2022/04/25 02:40:25;;;;;;;;;;;24.20;42.90;;;;;;1538007;75;1947;-66
2022/04/25 02:42:27;;;;;;;;;;;24.20;42.90;;;;;;1535978;75;721;-66
2022/04/25 02:44:29;;;;;;;;;;;24.30;43.00;;;;;;1540968;75;1157;-66
2022/04/25 02:46:31;;;;;;;;;;;24.40;42.80;;;;;;1542736;75;668;-67
2022/04/25 02:48:33;;;;;;;;;;;24.50;43.00;;;;;;1540255;75;637;-68
2022/04/25 02:50:35;;;;;;;;;;;24.40;43.10;;;;;;1538204;75;683;-67
2022/04/25 02:52:37;;;;;;;;;;;24.30;43.20;;;;;;1541072;75;678;-66
2022/04/25 02:54:39;;;;;;;;;;;24.30;43.40;;;;;;1540102;75;1126;-66
2022/04/25 02:56:40;;;;;;;;;;;24.30;43.60;;;;;;1549812;75;713;-66
2022/04/25 02:58:42;;;;;;;;;;;24.20;43.60;;;;;;1550806;75;747;-68
2022/04/25 03:00:49;;;;;;;;;;;24.20;43.60;;;;;;1540235;75;1947;-66
2022/04/25 03:02:48;;;;;;;;;;;24.10;43.70;;;;;;1539794;75;1478;-67
2022/04/25 03:04:50;;;;;;;;;;;24.20;43.70;;;;;;1539473;75;1125;-67
2022/04/25 03:06:54;;;;;;;;;;;24.20;43.90;;;;;;1553098;75;705;-66
2022/04/25 03:08:55;;;;;;;;;;;24.10;43.90;;;;;;1555780;75;725;-66
2022/04/25 03:10:57;;;;;;;;;;;24.10;43.90;;;;;;1553755;75;694;-66
2022/04/25 03:13:00;;;;;;;;;;;24.10;43.90;;;;;;1547486;75;719;-66
2022/04/25 03:15:02;;;;;;;;;;;24.20;43.90;;;;;;1544013;75;1160;-66
2022/04/25 03:17:04;;;;;;;;;;;24.10;43.90;;;;;;1560758;75;747;-67
2022/04/25 03:19:06;;;;;;;;;;;24.20;44.10;;;;;;1562000;75;673;-67
2022/04/25 03:21:08;;;;;;;;;;;24.20;44.10;;;;;;1560615;75;1950;-68
2022/04/25 03:23:09;;;;;;;;;;;24.20;44.10;;;;;;1554086;75;678;-67
2022/04/25 03:25:11;;;;;;;;;;;24.20;44.00;;;;;;1552504;75;1139;-69
2022/04/25 03:27:13;;;;;;;;;;;24.10;44.10;;;;;;1560644;75;719;-66
2022/04/25 03:29:15;;;;;;;;;;;24.10;44.10;;;;;;1559737;75;690;-66
2022/04/25 03:31:17;;;;;;;;;;;24.20;44.10;;;;;;1565066;75;686;-66
2022/04/25 03:33:19;;;;;;;;;;;24.20;44.00;;;;;;1550596;75;714;-66
2022/04/25 03:35:26;;;;;;;;;;;24.20;44.10;;;;;;1555205;74;1180;-66
2022/04/25 03:37:26;;;;;;;;;;;24.20;43.90;;;;;;1556534;75;1225;-68
2022/04/25 03:39:29;;;;;;;;;;;24.20;44.00;;;;;;1553092;75;719;-67
2022/04/25 03:41:31;;;;;;;;;;;24.10;43.90;;;;;;1551829;75;1915;-69
2022/04/25 03:43:34;;;;;;;;;;;24.10;44.00;;;;;;1555889;75;657;-68
2022/04/25 03:45:35;;;;;;;;;;;24.20;44.20;;;;;;1564453;75;1222;-67
2022/04/25 03:47:39;;;;;;;;;;;24.20;44.20;;;;;;1555314;75;677;-66
2022/04/25 03:49:41;;;;;;;;;;;24.20;44.20;;;;;;1560734;75;1626;-67
2022/04/25 03:51:43;;;;;;;;;;;24.20;44.20;;;;;;1554123;75;725;-66
2022/04/25 03:53:45;;;;;;;;;;;24.20;44.20;;;;;;1551871;75;749;-65
2022/04/25 03:58:06;;;;;;;;;;;24.20;43.90;;;;;;1530214;75;550;-67
2022/04/25 04:00:10;;;;;;;;;;;24.20;44.10;;;;;;1534629;75;1947;-67
2022/04/25 04:02:12;;;;;;;;;;;24.10;44.20;;;;;;1539518;75;634;-67
2022/04/25 04:04:14;;;;;;;;;;;24.20;43.90;;;;;;1541691;75;638;-67
2022/04/25 04:06:16;;;;;;;;;;;24.20;43.90;;;;;;1535082;75;1101;-66
2022/04/25 04:08:18;;;;;;;;;;;24.20;43.90;;;;;;1550623;75;663;-64
2022/04/25 04:10:20;;;;;;;;;;;24.20;43.80;;;;;;1543789;75;684;-66
2022/04/25 04:12:24;;;;;;;;;;;24.20;43.80;;;;;;1542395;75;676;-66
2022/04/25 04:14:25;;;;;;;;;;;24.20;43.80;;;;;;1534898;75;1133;-66
2022/04/25 04:16:28;;;;;;;;;;;24.20;43.70;;;;;;1543897;75;552;-66
2022/04/25 04:18:31;;;;;;;;;;;24.20;43.70;;;;;;1543238;75;656;-67
2022/04/25 04:20:33;;;;;;;;;;;24.20;43.70;;;;;;1542652;75;2039;-67
2022/04/25 04:22:36;;;;;;;;;;;24.20;43.60;;;;;;1541013;75;643;-66
2022/04/25 04:24:38;;;;;;;;;;;24.30;43.60;;;;;;1542187;75;1134;-65
2022/04/25 04:26:40;;;;;;;;;;;24.30;43.60;;;;;;1539993;75;720;-66
2022/04/25 04:28:42;;;;;;;;;;;24.30;43.60;;;;;;1541504;75;680;-67
2022/04/25 04:30:46;;;;;;;;;;;24.20;43.40;;;;;;1546856;75;663;-66
2022/04/25 04:32:48;;;;;;;;;;;24.30;43.60;;;;;;1537739;75;648;-66
2022/04/25 04:34:50;;;;;;;;;;;24.20;43.60;;;;;;1541661;75;1170;-67
2022/04/25 04:36:52;;;;;;;;;;;24.30;43.60;;;;;;1541486;75;784;-67
2022/04/25 04:38:54;;;;;;;;;;;24.30;43.50;;;;;;1539956;75;1407;-67
2022/04/25 04:40:55;;;;;;;;;;;24.40;43.40;;;;;;1534540;75;1943;-66
2022/04/25 04:42:57;;;;;;;;;;;24.30;43.30;;;;;;1540061;75;540;-67
2022/04/25 04:44:59;;;;;;;;;;;24.40;43.30;;;;;;1538682;75;1122;-67
2022/04/25 04:47:01;;;;;;;;;;;24.40;43.40;;;;;;1541686;75;692;-67
2022/04/25 04:49:03;;;;;;;;;;;24.30;43.40;;;;;;1551858;75;666;-69
2022/04/25 04:51:06;;;;;;;;;;;24.40;43.60;;;;;;1538906;75;764;-67
2022/04/25 04:53:08;;;;;;;;;;;24.30;43.80;;;;;;1542979;75;722;-67
2022/04/25 04:55:10;;;;;;;;;;;24.40;43.90;;;;;;1547113;75;1157;-65
2022/04/25 04:57:12;;;;;;;;;;;24.30;43.80;;;;;;1544270;75;695;-65
2022/04/25 04:59:14;;;;;;;;;;;24.30;43.80;;;;;;1542274;75;651;-65
2022/04/25 05:01:15;;;;;;;;;;;24.30;43.60;;;;;;1533783;75;1905;-65
2022/04/25 05:03:17;;;;;;;;;;;24.30;43.50;;;;;;1530885;75;698;-66
2022/04/25 05:05:19;;;;;;;;;;;24.40;43.30;;;;;;1534863;75;1121;-65
2022/04/25 05:07:21;;;;;;;;;;;24.50;43.20;;;;;;1542233;75;772;-64
2022/04/25 05:09:23;;;;;;;;;;;24.30;43.10;;;;;;1542062;75;658;-65
2022/04/25 05:11:28;;;;;;;;;;;24.40;43.10;;;;;;1555939;75;669;-63
2022/04/25 05:13:29;;;;;;;;;;;24.40;43.10;;;;;;1542432;75;1616;-64
2022/04/25 05:15:31;;;;;;;;;;;24.30;43.10;;;;;;1540562;75;1375;-66
2022/04/25 05:17:33;;;;;;;;;;;24.30;43.20;;;;;;1541547;75;663;-63
2022/04/25 05:19:35;;;;;;;;;;;24.40;43.40;;;;;;1545058;75;640;-68
2022/04/25 05:21:38;;;;;;;;;;;24.30;43.50;;;;;;1547493;75;1919;-66
2022/04/25 05:23:41;;;;;;;;;;;24.30;43.60;;;;;;1542674;75;676;-63
2022/04/25 05:25:43;;;;;;;;;;;24.40;43.70;;;;;;1539075;74;1191;-68
2022/04/25 05:27:49;;;;;;;;;;;24.40;43.80;;;;;;1551234;75;640;-65
2022/04/25 05:29:51;;;;;;;;;;;24.30;43.80;;;;;;1543553;75;636;-67
2022/04/25 05:31:54;;;;;;;;;;;24.30;43.60;;;;;;1547331;75;692;-68
2022/04/25 05:33:55;;;;;;;;;;;24.30;43.50;;;;;;1541560;75;1607;-65
2022/04/25 05:35:57;;;;;;;;;;;24.30;43.40;;;;;;1535905;74;1156;-66
2022/04/25 05:37:59;;;;;;;;;;;24.50;43.20;;;;;;1538855;75;716;-67
2022/04/25 05:40:01;;;;;;;;;;;24.60;43.00;;;;;;1542997;75;645;-67
2022/04/25 05:42:03;;;;;;;;;;;24.50;42.80;;;;;;1542825;75;1917;-67
2022/04/25 05:44:05;;;;;;;;;;;24.50;42.80;;;;;;1547825;75;625;-66
2022/04/25 05:46:07;;;;;;;;;;;24.60;42.70;;;;;;1541550;75;1133;-65
2022/04/25 05:52:49;;;;;;;;;;;24.60;42.30;;;;;;1542897;75;761;-65
2022/04/25 05:54:51;;;;;;;;;;;24.70;42.20;;;;;;1537154;75;1192;-66
2022/04/25 05:56:53;;;;;;;;;;;24.80;42.00;;;;;;1539335;75;649;-65
2022/04/25 05:58:55;;;;;;;;;;;24.80;41.80;;;;;;1534288;75;730;-64
2022/04/25 06:00:56;;;;;;;;;;;24.80;41.70;;;;;;1530028;75;1931;-64
2022/04/25 06:02:58;;;;;;;;;;;24.80;41.60;;;;;;1524066;75;652;-65
2022/04/25 06:05:00;;;;;;;;;;;24.80;41.60;;;;;;1536758;75;1138;-64
2022/04/25 06:07:04;;;;;;;;;;;24.80;41.50;;;;;;1543466;75;660;-64
2022/04/25 06:09:06;;;;;;;;;;;24.80;41.50;;;;;;1547289;75;643;-65
2022/04/25 06:11:08;;;;;;;;;;;24.90;41.40;;;;;;1537894;75;686;-64
2022/04/25 06:13:10;;;;;;;;;;;25.00;41.30;;;;;;1536410;75;1677;-65
2022/04/25 06:15:12;;;;;;;;;;;25.00;41.00;;;;;;1542131;75;1135;-63
2022/04/25 06:17:15;;;;;;;;;;;25.10;41.00;;;;;;1547666;75;755;-64
2022/04/25 06:19:17;;;;;;;;;;;25.10;40.90;;;;;;1554935;75;699;-64
2022/04/25 06:21:18;;;;;;;;;;;25.10;40.80;;;;;;1554580;75;1935;-64
2022/04/25 06:23:20;;;;;;;;;;;25.10;40.80;;;;;;1544390;75;587;-64
2022/04/25 06:25:22;;;;;;;;;;;25.10;40.80;;;;;;1544114;75;1110;-70
2022/04/25 06:27:24;;;;;;;;;;;25.00;40.90;;;;;;1551088;75;668;-68
2022/04/25 06:29:26;;;;;;;;;;;24.80;40.90;;;;;;1537107;75;679;-67
2022/04/25 06:31:28;;;;;;;;;;;24.80;41.10;;;;;;1542871;75;1525;-68
2022/04/25 06:33:30;;;;;;;;;;;24.80;41.00;;;;;;1521905;75;672;-67
2022/04/25 06:35:32;;;;;;;;;;;24.70;40.80;;;;;;1547069;74;1195;-70
2022/04/25 06:37:33;;;;;;;;;;;24.80;40.60;;;;;;1545791;75;724;-71
2022/04/25 06:39:35;;;;;;;;;;;24.70;39.70;;;;;;1543178;75;686;-68
2022/04/25 06:41:37;;;;;;;;;;;24.60;39.70;;;;;;1535199;75;2063;-69
2022/04/25 06:43:39;;;;;;;;;;;24.50;39.80;;;;;;1520179;75;681;-68
2022/04/25 06:45:41;;;;;;;;;;;24.50;40.00;;;;;;1545117;75;1143;-68
2022/04/25 06:47:43;;;;;;;;;;;24.40;40.00;;;;;;1539463;75;659;-68
2022/04/25 06:49:45;;;;;;;;;;;24.50;40.00;;;;;;1544181;75;720;-69
2022/04/25 06:51:47;;;;;;;;;;;24.40;40.00;;;;;;1542691;75;700;-69
2022/04/25 06:53:49;;;;;;;;;;;24.40;40.00;;;;;;1535853;75;667;-68
2022/04/25 06:55:51;;;;;;;;;;;24.50;39.90;;;;;;1536869;75;1132;-72
2022/04/25 06:57:54;;;;;;;;;;;24.30;39.80;;;;;;1540802;75;644;-71
2022/04/25 06:59:56;;;;;;;;;;;24.40;39.60;;;;;;1541242;75;668;-69
2022/04/25 07:01:58;;;;;;;;;;;24.50;39.80;;;;;;1533193;75;1933;-69
2022/04/25 07:04:00;;;;;;;;;;;24.40;39.70;;;;;;1541946;75;672;-69
2022/04/25 07:06:02;;;;;;;;;;;24.50;39.60;;;;;;1542374;75;1114;-67
2022/04/25 07:08:04;;;;;;;;;;;24.60;39.40;;;;;;1535832;75;1519;-72
2022/04/25 07:10:07;;;;;;;;;;;24.60;39.20;;;;;;1543321;75;698;-70
2022/04/25 07:12:09;;;;;;;;;;;24.70;39.30;;;;;;1538731;75;721;-71
2022/04/25 07:14:14;;;;;;;;;;;24.70;39.20;;;;;;1538025;75;675;-68
2022/04/25 07:16:15;;;;;;;;;;;24.70;39.10;;;;;;1543116;75;1552;-68
2022/04/25 07:18:17;;;;;;;;;;;24.70;38.80;;;;;;1540362;75;624;-70
2022/04/25 07:20:19;;;;;;;;;;;24.60;38.40;;;;;;1548462;75;680;-69
2022/04/25 07:29:20;;;;;;;;;;;24.70;37.70;;;;;;1523069;75;660;-67
2022/04/25 07:31:22;;;;;;;;;;;24.60;37.40;;;;;;1530037;75;645;-69
2022/04/25 07:33:26;;;;;;;;;;;24.70;37.50;;;;;;1544480;75;587;-70
2022/04/25 07:35:31;;;;;;;;;;;24.60;37.40;;;;;;1530428;75;1149;-67
2022/04/25 07:37:33;;;;;;;;;;;24.50;37.30;;;;;;1585170;74;675;-58
2022/04/25 07:39:35;;;;;;;;;;;24.60;37.20;;;;;;1602416;73;1215;-56
2022/04/25 07:41:37;;;;;;;;;;;24.50;37.00;;;;;;1601530;73;1924;-55
2022/04/25 07:43:38;;;;;;;;;;;24.50;36.90;;;;;;1614537;73;674;-54
2022/04/25 07:45:40;;;;;;;;;;;24.40;37.00;;;;;;1604167;73;676;-57
2022/04/25 07:47:45;;;;;;;;;;;24.50;36.90;;;;;;1612476;73;802;-58
2022/04/25 07:49:47;;;;;;;;;;;24.40;36.80;;;;;;1599108;73;1144;-58
2022/04/25 07:51:49;;;;;;;;;;;24.40;36.70;;;;;;1613727;73;754;-58
2022/04/25 07:53:50;;;;;;;;;;;24.40;36.80;;;;;;1614342;73;742;-58
2022/04/25 07:55:52;;;;;;;;;;;24.40;36.70;;;;;;1606783;73;742;-58
2022/04/25 07:57:54;;;;;;;;;;;24.40;36.60;;;;;;1610923;73;714;-58
2022/04/25 08:00:00;;;;;;;;;;;24.30;36.50;;;;;;1610820;73;1130;-56
2022/04/25 08:02:00;;;;;;;;;;;24.30;36.40;;;;;;1610361;73;1923;-55
2022/04/25 08:04:02;;;;;;;;;;;24.20;36.10;;;;;;1597840;73;1532;-58
2022/04/25 08:06:05;;;;;;;;;;;24.30;36.10;;;;;;1601484;73;754;-55
2022/04/25 08:08:07;;;;;;;;;;;24.20;36.10;;;;;;1599258;73;740;-56
2022/04/25 08:10:08;;;;;;;;;;;24.20;35.80;;;;;;1603673;73;1153;-56
2022/04/25 08:19:10;;;;;;;;;;;24.20;35.80;;;;;;1600235;73;1651;-57
2022/04/25 08:21:13;;;;;;;;;;;24.20;35.70;;;;;;1602016;73;770;-56
2022/04/25 08:23:15;;;;;;;;;;;24.10;35.80;;;;;;1598210;73;1930;-57
2022/04/25 08:25:18;;;;;;;;;;;24.20;35.90;;;;;;1604006;73;706;-58
2022/04/25 08:27:20;;;;;;;;;;;24.20;35.80;;;;;;1600994;73;703;-58
2022/04/25 08:29:22;;;;;;;;;;;24.30;35.90;;;;;;1600877;73;1149;-55
2022/04/25 08:31:24;;;;;;;;;;;24.30;35.80;;;;;;1617504;73;714;-55
2022/04/25 08:33:26;;;;;;;;;;;24.30;35.70;;;;;;1612802;73;1572;-55
2022/04/25 08:35:28;;;;;;;;;;;24.20;35.50;;;;;;1597785;73;666;-57
2022/04/25 08:37:30;;;;;;;;;;;24.30;35.70;;;;;;1599046;73;789;-57
2022/04/25 08:39:32;;;;;;;;;;;24.30;35.70;;;;;;1604033;73;1181;-55
2022/04/25 08:41:36;;;;;;;;;;;24.30;35.60;;;;;;1607377;73;805;-57
2022/04/25 08:43:39;;;;;;;;;;;24.20;35.60;;;;;;1597769;73;1935;-57
2022/04/25 08:45:41;;;;;;;;;;;24.20;35.60;;;;;;1601164;73;689;-58
2022/04/25 08:47:53;;;;;;;;;;;24.20;35.70;;;;;;1606150;73;1504;-56
2022/04/25 08:49:57;;;;;;;;;;;24.20;35.70;;;;;;1598954;73;1131;-54
2022/04/25 08:51:59;;;;;;;;;;;24.20;35.80;;;;;;1608608;73;670;-57
2022/04/25 08:54:02;;;;;;;;;;;24.10;35.70;;;;;;1618205;73;691;-58
2022/04/25 08:56:04;;;;;;;;;;;24.00;35.70;;;;;;1599127;73;651;-55
2022/04/25 08:58:06;;;;;;;;;;;24.10;35.80;;;;;;1613972;72;744;-55
2022/04/25 09:00:08;;;;;;;;;;;24.00;35.70;;;;;;1623009;72;1239;-56
2022/04/25 09:02:10;;;;;;;;;;;24.10;35.90;;;;;;1603205;73;1936;-58
2022/04/25 09:04:12;;;;;;;;;;;24.10;36.00;;;;;;1613349;73;751;-57
2022/04/25 09:06:14;;;;;;;;;;;24.10;36.00;;;;;;1608297;72;773;-58
2022/04/25 09:08:16;;;;;;;;;;;24.10;36.00;;;;;;1618092;73;736;-58
2022/04/25 09:10:18;;;;;;;;;;;24.20;36.00;;;;;;1618073;73;1125;-56
2022/04/25 09:12:20;;;;;;;;;;;24.10;36.00;;;;;;1618162;73;694;-58
2022/04/25 09:14:22;;;;;;;;;;;24.10;36.00;;;;;;1605322;73;1594;-55
2022/04/25 09:16:24;;;;;;;;;;;24.10;36.00;;;;;;1607428;72;650;-56
2022/04/25 09:18:26;;;;;;;;;;;24.10;36.00;;;;;;1614311;73;663;-55
2022/04/25 09:20:28;;;;;;;;;;;24.10;36.00;;;;;;1599568;73;1111;-58
2022/04/25 09:22:32;;;;;;;;;;;24.10;36.00;;;;;;1615761;73;1935;-57
2022/04/25 09:24:35;;;;;;;;;;;24.10;36.00;;;;;;1609243;73;1795;-59
2022/04/25 09:26:37;;;;;;;;;;;24.10;35.90;;;;;;1608289;72;669;-56
2022/04/25 09:28:54;;;;;;;;;;;24.10;35.90;;;;;;1617745;72;1443;-56
2022/04/25 09:30:56;;;;;;;;;;;24.10;36.00;;;;;;1613046;73;793;-56
2022/04/25 09:32:58;;;;;;;;;;;24.00;35.90;;;;;;1606153;72;942;-59
2022/04/25 09:35:03;;;;;;;;;;;24.00;35.90;;;;;;1616915;73;721;-58
2022/04/25 09:37:06;;;;;;;;;;;24.00;35.90;;;;;;1607792;73;1879;-57
2022/04/25 09:39:09;;;;;;;;;;;24.10;36.00;;;;;;1605388;73;1177;-57
2022/04/25 09:41:14;;;;;;;;;;;24.10;36.10;;;;;;1598873;73;1497;-59
2022/04/25 09:43:16;;;;;;;;;;;24.10;36.10;;;;;;1606968;72;1936;-58
2022/04/25 09:45:18;;;;;;;;;;;24.10;36.10;;;;;;1600179;73;675;-56
2022/04/25 09:47:29;;;;;;;;;;;24.10;36.10;;;;;;1580918;75;1297;-55
2022/04/25 09:49:31;;;;;;;;;;;24.10;36.00;;;;;;1580735;74;1138;-58
2022/04/25 09:51:34;;;;;;;;;;;24.20;36.00;;;;;;1551965;74;670;-58
2022/04/25 09:53:53;;;;;;;;;;;24.20;36.00;;;;;;1583645;73;770;-56
2022/04/25 09:55:52;;;;;;;;;;;24.20;36.00;;;;;;1571537;74;1625;-57
2022/04/25 09:57:54;;;;;;;;;;;24.20;36.00;;;;;;1577681;73;1620;-58
2022/04/25 09:59:59;;;;;;;;;;;24.20;36.00;;;;;;1584276;73;1123;-58
2022/04/25 10:02:04;;;;;;;;;;;24.20;36.00;;;;;;1579886;74;679;-55
2022/04/25 10:04:06;;;;;;;;;;;24.20;36.00;;;;;;1581253;74;1924;-56
2022/04/25 10:06:08;;;;;;;;;;;24.20;35.80;;;;;;1593636;74;729;-57
2022/04/25 10:08:11;;;;;;;;;;;24.20;35.60;;;;;;1593237;74;658;-58
2022/04/25 10:10:13;;;;;;;;;;;24.20;35.50;;;;;;1573694;73;1143;-58
2022/04/25 10:12:15;;;;;;;;;;;24.20;35.50;;;;;;1567540;74;1463;-59
2022/04/25 10:14:17;;;;;;;;;;;24.10;35.50;;;;;;1566365;75;955;-58
2022/04/25 10:16:24;;;;;;;;;;;24.20;35.40;;;;;;1583463;73;693;-57
2022/04/25 10:18:23;;;;;;;;;;;24.20;35.30;;;;;;1579196;74;1289;-58
2022/04/25 10:20:25;;;;;;;;;;;24.20;35.30;;;;;;1585644;73;1167;-59
2022/04/25 10:22:27;;;;;;;;;;;24.10;35.20;;;;;;1576730;74;1918;-58
2022/04/25 10:24:29;;;;;;;;;;;24.10;35.00;;;;;;1576345;73;1363;-57
2022/04/25 10:26:31;;;;;;;;;;;24.10;34.90;;;;;;1575859;73;735;-56
2022/04/25 10:28:34;;;;;;;;;;;24.00;34.80;;;;;;1575097;73;718;-56
2022/04/25 10:30:36;;;;;;;;;;;24.00;34.70;;;;;;1574213;73;1114;-56
2022/04/25 10:32:38;;;;;;;;;;;24.00;34.70;;;;;;1574400;73;719;-57
2022/04/25 10:35:04;;;;;;;;;;;24.00;34.50;;;;;;1579294;74;670;-59
2022/04/25 10:36:56;;;;;;;;;;;24.00;34.40;;;;;;1584565;74;1654;-58
2022/04/25 10:39:00;;;;;;;;;;;23.90;34.20;;;;;;1587742;74;1590;-57
2022/04/25 10:45:58;;;;;;;;;;;23.90;34.10;;;;;;1572589;73;1620;-59
2022/04/25 10:48:00;;;;;;;;;;;23.90;34.00;;;;;;1580292;73;707;-57
2022/04/25 10:50:03;;;;;;;;;;;23.90;34.00;;;;;;1565943;74;1192;-60
2022/04/25 10:52:08;;;;;;;;;;;23.90;33.90;;;;;;1563640;75;715;-57
2022/04/25 10:54:10;;;;;;;;;;;23.80;33.80;;;;;;1585519;74;1673;-58
2022/04/25 10:56:14;;;;;;;;;;;23.90;33.90;;;;;;1586345;74;705;-59
2022/04/25 10:58:16;;;;;;;;;;;23.80;33.80;;;;;;1595594;74;690;-57
2022/04/25 11:00:40;;;;;;;;;;;23.90;33.90;;;;;;1585979;74;1150;-57
2022/04/25 11:02:42;;;;;;;;;;;23.80;33.90;;;;;;1584722;74;1918;-57
2022/04/25 11:04:44;;;;;;;;;;;23.80;33.90;;;;;;1608964;74;1173;-57
2022/04/25 11:06:46;;;;;;;;;;;23.80;33.90;;;;;;1598508;74;1520;-58
2022/04/25 11:08:52;;;;;;;;;;;23.80;33.90;;;;;;1600379;74;691;-59
2022/04/25 11:11:03;;;;;;;;;;;23.80;33.90;;;;;;1590480;74;679;-57
2022/04/25 11:13:07;;;;;;;;;;;23.80;33.90;;;;;;1594371;74;693;-59
2022/04/25 11:15:09;;;;;;;;;;;23.80;34.00;;;;;;1579806;74;664;-55
2022/04/25 11:17:14;;;;;;;;;;;23.90;34.10;;;;;;1580390;74;727;-60
2022/04/25 11:19:21;;;;;;;;;;;23.90;34.10;;;;;;1598973;74;1087;-59
2022/04/25 11:21:24;;;;;;;;;;;23.90;34.30;;;;;;1604254;74;1591;-59
2022/04/25 11:23:29;;;;;;;;;;;23.90;34.40;;;;;;1596780;74;1934;-59
2022/04/25 11:25:32;;;;;;;;;;;23.90;34.50;;;;;;1586203;74;952;-57
2022/04/25 11:27:39;;;;;;;;;;;24.00;34.60;;;;;;1595198;74;709;-59
2022/04/25 11:29:45;;;;;;;;;;;23.80;34.60;;;;;;1580495;74;1454;-57
2022/04/25 11:31:46;;;;;;;;;;;23.90;34.80;;;;;;1581668;74;726;-56
2022/04/25 11:33:49;;;;;;;;;;;23.90;34.80;;;;;;1577517;74;705;-58
2022/04/25 11:35:52;;;;;;;;;;;23.90;34.90;;;;;;1581398;74;1566;-60
2022/04/25 11:37:56;;;;;;;;;;;23.90;35.00;;;;;;1576250;75;1129;-59
2022/04/25 11:39:58;;;;;;;;;;;23.90;35.00;;;;;;1582062;74;1124;-59
2022/04/25 11:42:00;;;;;;;;;;;24.00;35.10;;;;;;1582428;74;776;-59
2022/04/25 11:44:02;;;;;;;;;;;24.00;35.20;;;;;;1581711;74;1911;-57
2022/04/25 11:46:05;;;;;;;;;;;23.90;35.20;;;;;;1596343;74;682;-59
2022/04/25 11:48:09;;;;;;;;;;;23.90;35.20;;;;;;1600064;74;696;-57
2022/04/25 11:50:11;;;;;;;;;;;23.90;35.30;;;;;;1592587;74;1682;-56
2022/04/25 11:52:17;;;;;;;;;;;24.00;35.40;;;;;;1604529;74;736;-55
2022/04/25 11:54:19;;;;;;;;;;;24.00;35.50;;;;;;1595493;74;947;-58
2022/04/25 11:56:21;;;;;;;;;;;24.00;35.50;;;;;;1597509;74;659;-56
2022/04/25 11:58:29;;;;;;;;;;;24.00;35.60;;;;;;1597083;74;768;-58
2022/04/25 12:00:31;;;;;;;;;;;23.90;35.60;;;;;;1601015;74;1166;-59
2022/04/25 12:02:35;;;;;;;;;;;23.90;35.60;;;;;;1604612;74;637;-57
2022/04/25 12:04:37;;;;;;;;;;;23.90;35.70;;;;;;1590124;73;1932;-57
2022/04/25 12:06:39;;;;;;;;;;;23.90;35.70;;;;;;1578075;74;668;-54
2022/04/25 12:15:42;;;;;;;;;;;24.00;36.00;;;;;;1590939;74;1602;-57
2022/04/25 12:17:45;;;;;;;;;;;23.90;36.00;;;;;;1584262;74;1562;-58
2022/04/25 12:20:02;;;;;;;;;;;23.90;36.10;;;;;;1595995;74;1143;-55
2022/04/25 12:22:03;;;;;;;;;;;23.90;36.20;;;;;;1599870;73;1538;-57
2022/04/25 12:24:05;;;;;;;;;;;24.00;36.20;;;;;;1579284;74;1914;-59
2022/04/25 12:26:09;;;;;;;;;;;24.00;36.20;;;;;;1586339;74;699;-58
2022/04/25 12:28:18;;;;;;;;;;;23.90;36.30;;;;;;1601045;74;1901;-56
2022/04/25 12:30:20;;;;;;;;;;;24.00;36.30;;;;;;1598703;74;1145;-56
2022/04/25 12:32:25;;;;;;;;;;;24.00;36.30;;;;;;1596742;74;1350;-59
2022/04/25 12:34:28;;;;;;;;;;;23.90;36.30;;;;;;1598677;74;713;-54
2022/04/25 12:36:30;;;;;;;;;;;23.90;36.40;;;;;;1604658;74;2176;-58
2022/04/25 12:38:36;;;;;;;;;;;24.00;36.40;;;;;;1594865;74;776;-56
2022/04/25 12:40:56;;;;;;;;;;;24.00;36.30;;;;;;1602781;74;1148;-58
2022/04/25 12:42:58;;;;;;;;;;;23.90;36.30;;;;;;1585020;74;1350;-56
2022/04/25 12:45:00;;;;;;;;;;;23.90;36.40;;;;;;1594843;74;1947;-56
2022/04/25 12:47:05;;;;;;;;;;;23.90;36.50;;;;;;1590778;74;688;-58
2022/04/25 12:49:08;;;;;;;;;;;23.90;36.50;;;;;;1596931;74;1201;-55